sensor_id;sensor_type;location;lat;lon;timestamp;pressure;altitude;pressure_sealevel;temperature;humidity
82375;BME280;72005;50.496;15.798;2024-02-21T00:00:15;96336.78;;;4.99;97.96
82375;BME280;72005;50.496;15.798;2024-02-21T00:03:01;96335.38;;;4.96;97.83
82375;BME280;72005;50.496;15.798;2024-02-21T00:05:27;96328.19;;;4.98;97.89
82375;BME280;72005;50.496;15.798;2024-02-21T00:07:53;96328.78;;;4.94;98.18
82375;BME280;72005;50.496;15.798;2024-02-21T00:10:19;96320.97;;;4.94;98.09
82375;BME280;72005;50.496;15.798;2024-02-21T00:12:44;96316.78;;;4.93;98.04
82375;BME280;72005;50.496;15.798;2024-02-21T00:15:10;96318.38;;;4.87;98.10
82375;BME280;72005;50.496;15.798;2024-02-21T00:17:35;96314.19;;;4.86;98.32
82375;BME280;72005;50.496;15.798;2024-02-21T00:20:01;96318.78;;;4.91;98.33
82375;BME280;72005;50.496;15.798;2024-02-21T00:22:27;96310.78;;;4.92;98.54
82375;BME280;72005;50.496;15.798;2024-02-21T00:24:54;96312.38;;;4.93;98.32
82375;BME280;72005;50.496;15.798;2024-02-21T00:27:20;96308.97;;;4.93;98.35
82375;BME280;72005;50.496;15.798;2024-02-21T00:29:45;96307.56;;;4.90;98.37
82375;BME280;72005;50.496;15.798;2024-02-21T00:32:11;96302.34;;;4.90;98.49
82375;BME280;72005;50.496;15.798;2024-02-21T00:34:37;96307.97;;;4.87;98.84
82375;BME280;72005;50.496;15.798;2024-02-21T00:37:02;96306.16;;;4.88;98.69
82375;BME280;72005;50.496;15.798;2024-02-21T00:39:28;96298.97;;;4.90;98.63
82375;BME280;72005;50.496;15.798;2024-02-21T00:41:53;96300.78;;;4.89;98.88
82375;BME280;72005;50.496;15.798;2024-02-21T00:44:19;96306.38;;;4.93;98.76
82375;BME280;72005;50.496;15.798;2024-02-21T00:46:44;96298.34;;;4.94;98.91
82375;BME280;72005;50.496;15.798;2024-02-21T00:49:12;96299.75;;;4.97;98.82
82375;BME280;72005;50.496;15.798;2024-02-21T00:51:37;96298.53;;;5.00;98.75
82375;BME280;72005;50.496;15.798;2024-02-21T00:54:03;96288.13;;;5.00;98.63
82375;BME280;72005;50.496;15.798;2024-02-21T00:56:28;96282.91;;;5.00;98.67
82375;BME280;72005;50.496;15.798;2024-02-21T00:58:55;96285.53;;;5.00;98.73
82375;BME280;72005;50.496;15.798;2024-02-21T01:01:23;96292.53;;;4.99;98.28
82375;BME280;72005;50.496;15.798;2024-02-21T01:03:49;96290.53;;;4.94;98.20
82375;BME280;72005;50.496;15.798;2024-02-21T01:06:15;96280.94;;;4.95;98.51
82375;BME280;72005;50.496;15.798;2024-02-21T01:08:40;96277.31;;;4.96;98.62
82375;BME280;72005;50.496;15.798;2024-02-21T01:11:06;96280.72;;;4.96;98.31
82375;BME280;72005;50.496;15.798;2024-02-21T01:13:32;96277.31;;;4.96;98.51
82375;BME280;72005;50.496;15.798;2024-02-21T01:15:58;96266.69;;;4.97;98.58
82375;BME280;72005;50.496;15.798;2024-02-21T01:18:24;96269.28;;;4.97;98.33
82375;BME280;72005;50.496;15.798;2024-02-21T01:20:49;96263.09;;;4.98;98.33
82375;BME280;72005;50.496;15.798;2024-02-21T01:23:15;96250.69;;;5.01;98.39
82375;BME280;72005;50.496;15.798;2024-02-21T01:25:40;96255.91;;;4.94;98.49
82375;BME280;72005;50.496;15.798;2024-02-21T01:28:06;96257.09;;;4.91;98.53
82375;BME280;72005;50.496;15.798;2024-02-21T01:30:31;96252.50;;;4.93;98.57
82375;BME280;72005;50.496;15.798;2024-02-21T01:32:57;96255.09;;;4.93;98.56
82375;BME280;72005;50.496;15.798;2024-02-21T01:35:23;96244.69;;;4.93;98.74
82375;BME280;72005;50.496;15.798;2024-02-21T01:37:48;96245.47;;;4.94;98.62
82375;BME280;72005;50.496;15.798;2024-02-21T01:40:14;96241.06;;;4.94;98.71
82375;BME280;72005;50.496;15.798;2024-02-21T01:42:40;96237.50;;;4.95;98.58
82375;BME280;72005;50.496;15.798;2024-02-21T01:45:06;96236.69;;;4.95;98.38
82375;BME280;72005;50.496;15.798;2024-02-21T01:47:32;96239.06;;;4.96;98.39
82375;BME280;72005;50.496;15.798;2024-02-21T01:49:58;96231.28;;;4.96;98.37
82375;BME280;72005;50.496;15.798;2024-02-21T01:52:23;96227.88;;;4.96;98.59
82375;BME280;72005;50.496;15.798;2024-02-21T01:54:50;96227.66;;;4.97;98.66
82375;BME280;72005;50.496;15.798;2024-02-21T01:57:15;96219.66;;;4.99;98.38
82375;BME280;72005;50.496;15.798;2024-02-21T01:59:42;96216.25;;;4.98;98.36
82375;BME280;72005;50.496;15.798;2024-02-21T02:02:07;96219.47;;;5.01;98.37
82375;BME280;72005;50.496;15.798;2024-02-21T02:04:34;96216.03;;;5.00;98.26
82375;BME280;72005;50.496;15.798;2024-02-21T02:07:02;96213.66;;;4.98;98.46
82375;BME280;72005;50.496;15.798;2024-02-21T02:09:28;96214.63;;;4.97;97.98
82375;BME280;72005;50.496;15.798;2024-02-21T02:11:54;96214.63;;;4.97;98.30
82375;BME280;72005;50.496;15.798;2024-02-21T02:14:20;96209.66;;;4.96;98.23
82375;BME280;72005;50.496;15.798;2024-02-21T02:16:46;96206.03;;;4.97;98.38
82375;BME280;72005;50.496;15.798;2024-02-21T02:19:13;96209.44;;;4.97;98.27
82375;BME280;72005;50.496;15.798;2024-02-21T02:21:42;96205.03;;;4.98;98.26
82375;BME280;72005;50.496;15.798;2024-02-21T02:24:11;96201.63;;;4.97;98.15
82375;BME280;72005;50.496;15.798;2024-02-21T02:26:39;96202.63;;;4.96;98.09
82375;BME280;72005;50.496;15.798;2024-02-21T02:29:05;96191.63;;;4.94;98.16
82375;BME280;72005;50.496;15.798;2024-02-21T02:31:30;96191.84;;;4.93;98.14
82375;BME280;72005;50.496;15.798;2024-02-21T02:33:56;96189.44;;;4.91;97.93
82375;BME280;72005;50.496;15.798;2024-02-21T02:36:22;96195.44;;;4.92;98.09
82375;BME280;72005;50.496;15.798;2024-02-21T02:38:48;96189.03;;;4.88;98.05
82375;BME280;72005;50.496;15.798;2024-02-21T02:41:14;96188.06;;;4.82;98.07
82375;BME280;72005;50.496;15.798;2024-02-21T02:43:39;96185.44;;;4.82;98.32
82375;BME280;72005;50.496;15.798;2024-02-21T02:46:05;96192.25;;;4.83;98.34
82375;BME280;72005;50.496;15.798;2024-02-21T02:48:31;96182.66;;;4.84;98.36
82375;BME280;72005;50.496;15.798;2024-02-21T02:50:56;96185.25;;;4.84;98.55
82375;BME280;72005;50.496;15.798;2024-02-21T02:53:22;96178.66;;;4.81;98.33
82375;BME280;72005;50.496;15.798;2024-02-21T02:55:48;96177.03;;;4.80;98.56
82375;BME280;72005;50.496;15.798;2024-02-21T02:58:13;96182.25;;;4.80;98.61
82375;BME280;72005;50.496;15.798;2024-02-21T03:00:39;96188.28;;;4.81;98.38
82375;BME280;72005;50.496;15.798;2024-02-21T03:03:05;96180.66;;;4.79;98.38
82375;BME280;72005;50.496;15.798;2024-02-21T03:05:30;96170.66;;;4.76;98.56
82375;BME280;72005;50.496;15.798;2024-02-21T03:07:56;96174.28;;;4.75;98.33
82375;BME280;72005;50.496;15.798;2024-02-21T03:10:22;96167.44;;;4.74;98.63
82375;BME280;72005;50.496;15.798;2024-02-21T03:12:47;96171.66;;;4.75;98.60
82375;BME280;72005;50.496;15.798;2024-02-21T03:15:13;96161.66;;;4.72;98.69
82375;BME280;72005;50.496;15.798;2024-02-21T03:17:40;96161.66;;;4.72;98.71
82375;BME280;72005;50.496;15.798;2024-02-21T03:20:06;96163.66;;;4.70;98.82
82375;BME280;72005;50.496;15.798;2024-02-21T03:22:36;96154.47;;;4.67;98.93
82375;BME280;72005;50.496;15.798;2024-02-21T03:25:02;96159.84;;;4.66;98.81
82375;BME280;72005;50.496;15.798;2024-02-21T03:27:28;96158.06;;;4.66;98.99
82375;BME280;72005;50.496;15.798;2024-02-21T03:29:54;96160.47;;;4.68;98.95
82375;BME280;72005;50.496;15.798;2024-02-21T03:32:19;96156.66;;;4.70;98.91
82375;BME280;72005;50.496;15.798;2024-02-21T03:34:45;96158.25;;;4.71;98.89
82375;BME280;72005;50.496;15.798;2024-02-21T03:37:11;96154.66;;;4.72;98.78
82375;BME280;72005;50.496;15.798;2024-02-21T03:39:37;96157.66;;;4.69;98.95
82375;BME280;72005;50.496;15.798;2024-02-21T03:42:03;96157.84;;;4.68;98.75
82375;BME280;72005;50.496;15.798;2024-02-21T03:44:30;96154.25;;;4.69;98.65
82375;BME280;72005;50.496;15.798;2024-02-21T03:46:57;96156.84;;;4.69;98.79
82375;BME280;72005;50.496;15.798;2024-02-21T03:49:22;96157.44;;;4.71;98.96
82375;BME280;72005;50.496;15.798;2024-02-21T03:51:48;96153.03;;;4.71;99.04
82375;BME280;72005;50.496;15.798;2024-02-21T03:54:13;96153.63;;;4.73;98.99
82375;BME280;72005;50.496;15.798;2024-02-21T03:56:39;96158.66;;;4.75;98.86
82375;BME280;72005;50.496;15.798;2024-02-21T03:59:07;96159.22;;;4.77;98.96
82375;BME280;72005;50.496;15.798;2024-02-21T04:01:34;96158.66;;;4.75;98.92
82375;BME280;72005;50.496;15.798;2024-02-21T04:04:00;96154.66;;;4.72;98.70
82375;BME280;72005;50.496;15.798;2024-02-21T04:06:26;96153.03;;;4.71;98.58
82375;BME280;72005;50.496;15.798;2024-02-21T04:08:52;96141.84;;;4.71;98.71
82375;BME280;72005;50.496;15.798;2024-02-21T04:11:17;96148.06;;;4.63;98.85
82375;BME280;72005;50.496;15.798;2024-02-21T04:13:44;96138.69;;;4.56;98.95
82375;BME280;72005;50.496;15.798;2024-02-21T04:16:10;96139.47;;;4.56;98.99
82375;BME280;72005;50.496;15.798;2024-02-21T04:18:36;96141.28;;;4.56;98.84
82375;BME280;72005;50.496;15.798;2024-02-21T04:21:02;96137.66;;;4.57;98.90
82375;BME280;72005;50.496;15.798;2024-02-21T04:23:27;96135.66;;;4.59;99.05
82375;BME280;72005;50.496;15.798;2024-02-21T04:25:53;96142.47;;;4.60;99.10
82375;BME280;72005;50.496;15.798;2024-02-21T04:28:18;96138.88;;;4.61;99.07
82375;BME280;72005;50.496;15.798;2024-02-21T04:30:44;96130.66;;;4.64;99.08
82375;BME280;72005;50.496;15.798;2024-02-21T04:33:10;96132.06;;;4.66;99.31
82375;BME280;72005;50.496;15.798;2024-02-21T04:35:36;96131.03;;;4.67;99.11
82375;BME280;72005;50.496;15.798;2024-02-21T04:38:02;96128.03;;;4.70;98.81
82375;BME280;72005;50.496;15.798;2024-02-21T04:40:27;96119.63;;;4.68;98.98
82375;BME280;72005;50.496;15.798;2024-02-21T04:42:53;96115.03;;;4.70;98.92
82375;BME280;72005;50.496;15.798;2024-02-21T04:45:19;96117.81;;;4.69;98.94
82375;BME280;72005;50.496;15.798;2024-02-21T04:47:45;96120.22;;;4.70;98.99
82375;BME280;72005;50.496;15.798;2024-02-21T04:50:11;96116.22;;;4.68;98.94
82375;BME280;72005;50.496;15.798;2024-02-21T04:52:36;96116.22;;;4.68;98.94
82375;BME280;72005;50.496;15.798;2024-02-21T04:55:02;96116.84;;;4.70;98.94
82375;BME280;72005;50.496;15.798;2024-02-21T04:57:27;96116.03;;;4.69;99.04
82375;BME280;72005;50.496;15.798;2024-02-21T04:59:53;96115.81;;;4.71;98.87
82375;BME280;72005;50.496;15.798;2024-02-21T05:02:19;96110.63;;;4.71;98.76
82375;BME280;72005;50.496;15.798;2024-02-21T05:04:48;96107.81;;;4.72;98.95
82375;BME280;72005;50.496;15.798;2024-02-21T05:07:13;96110.19;;;4.74;98.77
82375;BME280;72005;50.496;15.798;2024-02-21T05:09:39;96110.81;;;4.76;98.69
82375;BME280;72005;50.496;15.798;2024-02-21T05:12:04;96100.22;;;4.78;98.77
82375;BME280;72005;50.496;15.798;2024-02-21T05:14:30;96101.19;;;4.77;98.79
82375;BME280;72005;50.496;15.798;2024-02-21T05:16:56;96104.59;;;4.77;98.92
82375;BME280;72005;50.496;15.798;2024-02-21T05:19:21;96109.00;;;4.77;98.67
82375;BME280;72005;50.496;15.798;2024-02-21T05:21:47;96101.97;;;4.77;98.67
82375;BME280;72005;50.496;15.798;2024-02-21T05:24:13;96106.19;;;4.78;98.69
82375;BME280;72005;50.496;15.798;2024-02-21T05:26:38;96102.22;;;4.75;98.37
82375;BME280;72005;50.496;15.798;2024-02-21T05:29:04;96103.00;;;4.76;98.37
82375;BME280;72005;50.496;15.798;2024-02-21T05:31:57;96098.22;;;4.73;98.49
82375;BME280;72005;50.496;15.798;2024-02-21T05:34:24;96093.19;;;4.78;98.95
82375;BME280;72005;50.496;15.798;2024-02-21T05:36:50;96090.38;;;4.80;98.57
82375;BME280;72005;50.496;15.798;2024-02-21T05:39:17;96093.75;;;4.80;98.50
82375;BME280;72005;50.496;15.798;2024-02-21T05:41:42;96088.97;;;4.77;98.40
82375;BME280;72005;50.496;15.798;2024-02-21T05:44:08;96091.78;;;4.75;98.14
82375;BME280;72005;50.496;15.798;2024-02-21T05:46:34;96092.59;;;4.76;98.58
82375;BME280;72005;50.496;15.798;2024-02-21T05:49:00;96091.00;;;4.75;98.38
82375;BME280;72005;50.496;15.798;2024-02-21T05:51:26;96094.41;;;4.75;98.34
82375;BME280;72005;50.496;15.798;2024-02-21T05:53:52;96095.19;;;4.76;98.22
82375;BME280;72005;50.496;15.798;2024-02-21T05:56:17;96091.56;;;4.77;98.42
82375;BME280;72005;50.496;15.798;2024-02-21T05:58:43;96088.97;;;4.77;98.35
82375;BME280;72005;50.496;15.798;2024-02-21T06:01:10;96089.19;;;4.75;98.24
82375;BME280;72005;50.496;15.798;2024-02-21T06:03:36;96084.97;;;4.74;97.96
82375;BME280;72005;50.496;15.798;2024-02-21T06:06:02;96088.81;;;4.72;98.04
82375;BME280;72005;50.496;15.798;2024-02-21T06:08:28;96086.22;;;4.72;98.07
82375;BME280;72005;50.496;15.798;2024-02-21T06:10:53;96089.00;;;4.70;98.36
82375;BME280;72005;50.496;15.798;2024-02-21T06:13:23;96089.81;;;4.71;98.36
82375;BME280;72005;50.496;15.798;2024-02-21T06:15:50;96086.22;;;4.72;98.00
82375;BME280;72005;50.496;15.798;2024-02-21T06:18:19;96093.00;;;4.73;98.15
82375;BME280;72005;50.496;15.798;2024-02-21T06:20:45;96085.81;;;4.75;98.30
82375;BME280;72005;50.496;15.798;2024-02-21T06:23:15;96088.41;;;4.75;98.29
82375;BME280;72005;50.496;15.798;2024-02-21T06:25:41;96089.19;;;4.75;98.58
82375;BME280;72005;50.496;15.798;2024-02-21T06:28:08;96079.38;;;4.78;98.37
82375;BME280;72005;50.496;15.798;2024-02-21T06:30:33;96091.19;;;4.73;98.13
82375;BME280;72005;50.496;15.798;2024-02-21T06:32:59;96082.00;;;4.71;98.42
82375;BME280;72005;50.496;15.798;2024-02-21T06:35:25;96085.81;;;4.75;98.46
82375;BME280;72005;50.496;15.798;2024-02-21T06:37:51;96090.00;;;4.76;98.74
82375;BME280;72005;50.496;15.798;2024-02-21T06:40:20;96088.56;;;4.80;98.68
82375;BME280;72005;50.496;15.798;2024-02-21T06:42:46;96088.16;;;4.83;98.83
82375;BME280;72005;50.496;15.798;2024-02-21T06:45:12;96083.34;;;4.87;98.85
82375;BME280;72005;50.496;15.798;2024-02-21T06:47:38;96080.53;;;4.88;98.56
82375;BME280;72005;50.496;15.798;2024-02-21T06:50:04;96080.53;;;4.88;98.51
82375;BME280;72005;50.496;15.798;2024-02-21T06:52:29;96087.34;;;4.89;98.64
82375;BME280;72005;50.496;15.798;2024-02-21T06:54:56;96084.53;;;4.91;98.42
82375;BME280;72005;50.496;15.798;2024-02-21T06:57:22;96080.91;;;4.92;98.59
82375;BME280;72005;50.496;15.798;2024-02-21T06:59:48;96083.91;;;4.89;98.29
82375;BME280;72005;50.496;15.798;2024-02-21T07:02:14;96088.16;;;4.90;98.29
82375;BME280;72005;50.496;15.798;2024-02-21T07:04:39;96092.13;;;4.92;98.46
82375;BME280;72005;50.496;15.798;2024-02-21T07:07:05;96086.09;;;4.92;98.23
82375;BME280;72005;50.496;15.798;2024-02-21T07:09:31;96084.53;;;4.91;98.48
82375;BME280;72005;50.496;15.798;2024-02-21T07:11:58;96083.72;;;4.90;98.69
82375;BME280;72005;50.496;15.798;2024-02-21T07:14:24;96086.53;;;4.89;98.44
82375;BME280;72005;50.496;15.798;2024-02-21T07:16:50;96083.72;;;4.90;98.45
82375;BME280;72005;50.496;15.798;2024-02-21T07:19:16;96087.34;;;4.89;98.50
82375;BME280;72005;50.496;15.798;2024-02-21T07:21:42;96085.31;;;4.91;98.52
82375;BME280;72005;50.496;15.798;2024-02-21T07:24:08;96084.53;;;4.91;98.59
82375;BME280;72005;50.496;15.798;2024-02-21T07:26:34;96083.31;;;4.93;98.73
82375;BME280;72005;50.496;15.798;2024-02-21T07:28:59;96082.28;;;4.94;98.95
82375;BME280;72005;50.496;15.798;2024-02-21T07:31:25;96079.13;;;4.92;98.83
82375;BME280;72005;50.496;15.798;2024-02-21T07:33:51;96076.09;;;4.95;99.25
82375;BME280;72005;50.496;15.798;2024-02-21T07:36:28;96077.50;;;4.98;99.12
82375;BME280;72005;50.496;15.798;2024-02-21T07:38:54;96078.47;;;5.04;99.29
82375;BME280;72005;50.496;15.798;2024-02-21T07:41:20;96071.25;;;5.06;99.12
82375;BME280;72005;50.496;15.798;2024-02-21T07:43:46;96078.06;;;5.07;98.99
82375;BME280;72005;50.496;15.798;2024-02-21T07:46:14;96074.47;;;5.01;98.83
82375;BME280;72005;50.496;15.798;2024-02-21T07:48:40;96067.25;;;5.03;98.91
82375;BME280;72005;50.496;15.798;2024-02-21T07:51:06;96064.41;;;5.11;99.32
82375;BME280;72005;50.496;15.798;2024-02-21T07:53:31;96061.78;;;5.18;99.33
82375;BME280;72005;50.496;15.798;2024-02-21T07:55:57;96063.53;;;5.24;99.36
82375;BME280;72005;50.496;15.798;2024-02-21T07:58:22;96056.31;;;5.26;99.64
82375;BME280;72005;50.496;15.798;2024-02-21T08:00:48;96058.66;;;5.34;99.77
82375;BME280;72005;50.496;15.798;2024-02-21T08:03:14;96059.44;;;5.41;99.62
82375;BME280;72005;50.496;15.798;2024-02-21T08:05:41;96056.19;;;5.46;99.65
82375;BME280;72005;50.496;15.798;2024-02-21T08:08:06;96057.72;;;5.54;99.61
82375;BME280;72005;50.496;15.798;2024-02-21T08:10:33;96064.53;;;5.55;99.77
82375;BME280;72005;50.496;15.798;2024-02-21T08:12:59;96060.50;;;5.59;99.76
82375;BME280;72005;50.496;15.798;2024-02-21T08:15:25;96049.44;;;5.63;99.53
82375;BME280;72005;50.496;15.798;2024-02-21T08:17:55;96048.38;;;5.71;99.52
82375;BME280;72005;50.496;15.798;2024-02-21T08:20:27;96049.59;;;5.69;99.18
82375;BME280;72005;50.496;15.798;2024-02-21T08:22:53;96039.56;;;5.72;99.47
82375;BME280;72005;50.496;15.798;2024-02-21T08:25:18;96045.59;;;5.73;99.07
82375;BME280;72005;50.496;15.798;2024-02-21T08:27:44;96048.97;;;5.73;99.32
82375;BME280;72005;50.496;15.798;2024-02-21T08:30:11;96043.94;;;5.78;98.96
82375;BME280;72005;50.496;15.798;2024-02-21T08:32:37;96047.97;;;5.74;98.77
82375;BME280;72005;50.496;15.798;2024-02-21T08:35:03;96054.19;;;5.73;98.81
82375;BME280;72005;50.496;15.798;2024-02-21T08:37:30;96050.41;;;5.69;98.85
82375;BME280;72005;50.496;15.798;2024-02-21T08:39:56;96047.00;;;5.69;98.55
82375;BME280;72005;50.496;15.798;2024-02-21T08:42:21;96054.88;;;5.62;98.64
82375;BME280;72005;50.496;15.798;2024-02-21T08:44:47;96051.06;;;5.64;98.74
82375;BME280;72005;50.496;15.798;2024-02-21T08:47:13;96050.09;;;5.59;98.91
82375;BME280;72005;50.496;15.798;2024-02-21T08:49:39;96051.25;;;5.63;99.55
82375;BME280;72005;50.496;15.798;2024-02-21T08:52:04;96038.38;;;5.68;99.35
82375;BME280;72005;50.496;15.798;2024-02-21T08:54:31;96032.75;;;5.71;99.22
82375;BME280;72005;50.496;15.798;2024-02-21T08:56:58;96039.28;;;5.80;99.55
82375;BME280;72005;50.496;15.798;2024-02-21T08:59:24;96039.66;;;5.84;99.58
82375;BME280;72005;50.496;15.798;2024-02-21T09:01:52;96035.97;;;5.92;99.53
82375;BME280;72005;50.496;15.798;2024-02-21T09:04:20;96040.59;;;5.96;99.87
82375;BME280;72005;50.496;15.798;2024-02-21T09:06:46;96038.94;;;6.02;99.62
82375;BME280;72005;50.496;15.798;2024-02-21T09:09:12;96036.84;;;6.10;99.89
82375;BME280;72005;50.496;15.798;2024-02-21T09:11:37;96033.38;;;6.17;100.00
82375;BME280;72005;50.496;15.798;2024-02-21T09:14:03;96032.66;;;6.28;99.73
82375;BME280;72005;50.496;15.798;2024-02-21T09:16:32;96029.34;;;6.39;99.78
82375;BME280;72005;50.496;15.798;2024-02-21T09:18:58;96040.06;;;6.49;100.00
82375;BME280;72005;50.496;15.798;2024-02-21T09:21:24;96034.63;;;6.51;99.61
82375;BME280;72005;50.496;15.798;2024-02-21T09:23:50;96035.56;;;6.57;99.48
82375;BME280;72005;50.496;15.798;2024-02-21T09:26:15;96039.13;;;6.62;99.39
82375;BME280;72005;50.496;15.798;2024-02-21T09:28:43;96035.41;;;6.70;99.67
82375;BME280;72005;50.496;15.798;2024-02-21T09:31:09;96041.84;;;6.67;98.53
82375;BME280;72005;50.496;15.798;2024-02-21T09:33:35;96042.03;;;6.54;98.01
82375;BME280;72005;50.496;15.798;2024-02-21T09:36:01;96041.66;;;6.50;98.58
82375;BME280;72005;50.496;15.798;2024-02-21T09:38:27;96038.38;;;6.55;98.96
82375;BME280;72005;50.496;15.798;2024-02-21T09:41:00;96047.91;;;6.68;98.83
82375;BME280;72005;50.496;15.798;2024-02-21T09:43:29;96039.38;;;6.72;99.58
82375;BME280;72005;50.496;15.798;2024-02-21T09:45:55;96043.63;;;6.73;99.30
82375;BME280;72005;50.496;15.798;2024-02-21T09:48:39;96048.25;;;6.71;98.67
82375;BME280;72005;50.496;15.798;2024-02-21T09:51:09;96041.84;;;6.67;98.44
82375;BME280;72005;50.496;15.798;2024-02-21T09:53:37;96045.13;;;6.63;98.33
82375;BME280;72005;50.496;15.798;2024-02-21T09:56:04;96033.47;;;6.65;98.42
82375;BME280;72005;50.496;15.798;2024-02-21T09:58:33;96044.34;;;6.62;99.00
82375;BME280;72005;50.496;15.798;2024-02-21T10:00:59;96036.72;;;6.61;98.63
82375;BME280;72005;50.496;15.798;2024-02-21T10:03:26;96025.06;;;6.63;98.73
82375;BME280;72005;50.496;15.798;2024-02-21T10:05:51;96020.56;;;6.70;98.74
82375;BME280;72005;50.496;15.798;2024-02-21T10:08:18;96017.72;;;6.72;98.21
82375;BME280;72005;50.496;15.798;2024-02-21T10:10:45;96011.25;;;6.74;98.41
82375;BME280;72005;50.496;15.798;2024-02-21T10:13:24;96010.13;;;6.70;98.65
82375;BME280;72005;50.496;15.798;2024-02-21T10:16:01;96008.66;;;6.74;98.41
82375;BME280;72005;50.496;15.798;2024-02-21T10:18:26;96014.09;;;6.73;98.30
82375;BME280;72005;50.496;15.798;2024-02-21T10:21:05;96006.25;;;6.73;97.93
82375;BME280;72005;50.496;15.798;2024-02-21T10:26:07;96000.81;;;6.74;97.74
82375;BME280;72005;50.496;15.798;2024-02-21T10:28:33;96005.47;;;6.72;97.96
82375;BME280;72005;50.496;15.798;2024-02-21T10:30:59;96000.25;;;6.72;97.73
82375;BME280;72005;50.496;15.798;2024-02-21T10:33:24;96001.25;;;6.71;98.14
82375;BME280;72005;50.496;15.798;2024-02-21T10:35:53;96002.41;;;6.75;97.69
82375;BME280;72005;50.496;15.798;2024-02-21T10:38:18;95996.75;;;6.78;97.92
82375;BME280;72005;50.496;15.798;2024-02-21T10:40:46;95996.28;;;6.82;98.29
82375;BME280;72005;50.496;15.798;2024-02-21T10:43:14;95991.81;;;6.89;98.09
82375;BME280;72005;50.496;15.798;2024-02-21T10:45:41;96001.34;;;6.95;98.01
82375;BME280;72005;50.496;15.798;2024-02-21T10:48:14;95999.19;;;6.92;97.65
82375;BME280;72005;50.496;15.798;2024-02-21T10:51:04;95993.81;;;6.87;97.05
82375;BME280;72005;50.496;15.798;2024-02-21T10:56:14;95978.88;;;6.94;97.31
82375;BME280;72005;50.496;15.798;2024-02-21T10:58:42;95970.03;;;6.95;97.46
82375;BME280;72005;50.496;15.798;2024-02-21T11:01:09;95977.72;;;6.90;96.07
82375;BME280;72005;50.496;15.798;2024-02-21T11:03:36;95968.44;;;6.94;96.43
82375;BME280;72005;50.496;15.798;2024-02-21T11:06:02;95971.06;;;6.94;96.49
82375;BME280;72005;50.496;15.798;2024-02-21T11:08:30;95962.63;;;6.92;96.93
82375;BME280;72005;50.496;15.798;2024-02-21T11:10:57;95962.63;;;6.92;97.18
82375;BME280;72005;50.496;15.798;2024-02-21T11:13:37;95969.22;;;6.94;97.39
82375;BME280;72005;50.496;15.798;2024-02-21T11:16:07;95960.16;;;6.97;97.43
82375;BME280;72005;50.496;15.798;2024-02-21T11:18:35;95960.38;;;6.95;96.68
82375;BME280;72005;50.496;15.798;2024-02-21T11:21:00;95960.59;;;6.94;96.72
82375;BME280;72005;50.496;15.798;2024-02-21T11:23:26;95954.66;;;6.87;96.32
82375;BME280;72005;50.496;15.798;2024-02-21T11:25:52;95951.47;;;6.85;96.70
82375;BME280;72005;50.496;15.798;2024-02-21T11:28:25;95946.38;;;6.90;96.71
82375;BME280;72005;50.496;15.798;2024-02-21T11:30:51;95945.94;;;6.93;96.88
82375;BME280;72005;50.496;15.798;2024-02-21T11:33:17;95937.09;;;6.94;97.17
82375;BME280;72005;50.496;15.798;2024-02-21T11:35:42;95940.28;;;6.96;96.63
82375;BME280;72005;50.496;15.798;2024-02-21T11:38:09;95937.66;;;6.96;96.54
82375;BME280;72005;50.496;15.798;2024-02-21T11:40:38;95925.88;;;6.93;96.33
82375;BME280;72005;50.496;15.798;2024-02-21T11:43:05;95938.69;;;6.95;96.24
82375;BME280;72005;50.496;15.798;2024-02-21T11:45:30;95926.22;;;6.97;96.11
82375;BME280;72005;50.496;15.798;2024-02-21T11:47:59;95934.50;;;6.94;96.63
82375;BME280;72005;50.496;15.798;2024-02-21T11:50:26;95937.09;;;6.94;96.62
82375;BME280;72005;50.496;15.798;2024-02-21T11:52:55;95935.88;;;6.96;96.79
82375;BME280;72005;50.496;15.798;2024-02-21T11:55:22;95929.38;;;6.99;96.11
82375;BME280;72005;50.496;15.798;2024-02-21T11:57:48;95931.44;;;6.97;96.09
82375;BME280;72005;50.496;15.798;2024-02-21T12:00:17;95913.03;;;6.92;95.91
82375;BME280;72005;50.496;15.798;2024-02-21T12:02:44;95909.03;;;6.89;96.26
82375;BME280;72005;50.496;15.798;2024-02-21T12:05:10;95903.50;;;6.97;96.32
82375;BME280;72005;50.496;15.798;2024-02-21T12:07:37;95908.47;;;6.99;96.44
82375;BME280;72005;50.496;15.798;2024-02-21T12:10:11;95905.66;;;7.00;96.77
82375;BME280;72005;50.496;15.798;2024-02-21T12:12:38;95903.06;;;7.00;96.32
82375;BME280;72005;50.496;15.798;2024-02-21T12:15:05;95900.44;;;7.00;95.99
82375;BME280;72005;50.496;15.798;2024-02-21T12:17:39;95896.47;;;6.98;96.42
82375;BME280;72005;50.496;15.798;2024-02-21T12:20:05;95889.41;;;6.98;96.02
82375;BME280;72005;50.496;15.798;2024-02-21T12:22:38;95894.44;;;7.00;96.32
82375;BME280;72005;50.496;15.798;2024-02-21T12:25:04;95895.44;;;6.99;96.21
82375;BME280;72005;50.496;15.798;2024-02-21T12:27:30;95889.19;;;7.00;96.46
82375;BME280;72005;50.496;15.798;2024-02-21T12:29:55;95892.41;;;7.02;96.22
82375;BME280;72005;50.496;15.798;2024-02-21T12:32:21;95882.94;;;7.01;95.73
82375;BME280;72005;50.496;15.798;2024-02-21T12:34:47;95880.34;;;7.01;95.79
82375;BME280;72005;50.496;15.798;2024-02-21T12:37:12;95879.09;;;7.04;95.91
82375;BME280;72005;50.496;15.798;2024-02-21T12:39:38;95874.13;;;7.02;95.18
82375;BME280;72005;50.496;15.798;2024-02-21T12:42:04;95856.72;;;6.96;95.79
82375;BME280;72005;50.496;15.798;2024-02-21T12:44:30;95862.97;;;6.95;95.71
82375;BME280;72005;50.496;15.798;2024-02-21T12:46:56;95858.31;;;6.97;96.01
82375;BME280;72005;50.496;15.798;2024-02-21T12:49:21;95858.66;;;7.00;95.58
82375;BME280;72005;50.496;15.798;2024-02-21T12:51:47;95855.72;;;6.97;95.80
82375;BME280;72005;50.496;15.798;2024-02-21T12:54:13;95850.50;;;6.97;95.83
82375;BME280;72005;50.496;15.798;2024-02-21T12:56:38;95844.22;;;6.98;95.93
82375;BME280;72005;50.496;15.798;2024-02-21T12:59:05;95852.31;;;6.96;95.55
82375;BME280;72005;50.496;15.798;2024-02-21T13:01:35;95847.41;;;7.00;95.59